Time;durP1;ratioP1;P1;durP2;ratioP2;P2;SDS_P1;SDS_P2;PMS_P1;PMS_P2;Temp;Humidity;BMP_temperature;BMP_pressure;BME280_temperature;BME280_humidity;BME280_pressure;Samples;Min_cycle;Max_cycle;Signal;HPM_P1;HPM_P2
2022/09/26 00:00:43;;;;;;;6.43;3.10;;;;;;;10.42;86.53;100937.25;5013754;28;20456;-73
2022/09/26 00:03:10;;;;;;;7.15;3.05;;;;;;;10.41;86.60;100938.16;5031872;28;20187;-74
2022/09/26 00:05:37;;;;;;;5.97;3.20;;;;;;;10.43;86.54;100931.06;5031488;28;20037;-74
2022/09/26 00:08:02;;;;;;;5.75;3.20;;;;;;;10.43;86.67;100925.75;5031854;28;20041;-74
2022/09/26 00:10:28;;;;;;;7.18;3.58;;;;;;;10.42;86.73;100921.38;5023934;28;20034;-73
2022/09/26 00:12:54;;;;;;;5.82;3.50;;;;;;;10.41;86.97;100916.97;5024573;28;20488;-74
2022/09/26 00:15:20;;;;;;;6.47;3.05;;;;;;;10.40;86.32;100916.09;5031640;28;20038;-74
2022/09/26 00:17:45;;;;;;;10.15;3.28;;;;;;;10.40;86.49;100912.59;5025142;28;20096;-74
2022/09/26 00:20:11;;;;;;;8.20;3.00;;;;;;;10.39;86.50;100905.56;5024179;28;20315;-73
2022/09/26 00:22:36;;;;;;;6.78;3.83;;;;;;;10.38;86.66;100899.38;5030180;28;20319;-73
2022/09/26 00:25:02;;;;;;;9.93;3.35;;;;;;;10.39;86.79;100902.91;5031278;28;20136;-74
2022/09/26 00:27:28;;;;;;;5.43;3.22;;;;;;;10.39;86.88;100894.97;5031517;28;20104;-74
2022/09/26 00:29:53;;;;;;;7.05;2.90;;;;;;;10.40;86.67;100896.72;5013552;28;20034;-73
2022/09/26 00:32:19;;;;;;;6.72;3.25;;;;;;;10.39;87.17;100889.69;5030019;28;20040;-74
2022/09/26 00:34:44;;;;;;;5.13;3.25;;;;;;;10.40;87.25;100880.81;5029906;28;20465;-74
2022/09/26 00:37:10;;;;;;;5.15;3.28;;;;;;;10.41;86.82;100877.25;5017605;28;21976;-74
2022/09/26 00:39:36;;;;;;;9.35;3.58;;;;;;;10.40;86.67;100876.41;5031395;28;20481;-73
2022/09/26 00:42:01;;;;;;;6.70;3.58;;;;;;;10.40;86.84;100879.03;5031284;28;20090;-74
2022/09/26 00:44:40;;;;;;;4.75;3.05;;;;;;;10.41;86.90;100871.97;5029868;28;20053;-74
2022/09/26 00:47:17;;;;;;;8.32;3.33;;;;;;;10.39;87.13;100866.72;5029680;28;20107;-74
2022/09/26 00:49:44;;;;;;;9.35;3.60;;;;;;;10.39;86.97;100861.44;5031480;28;20178;-73
2022/09/26 00:52:15;;;;;;;5.03;3.05;;;;;;;10.39;87.25;100857.91;5031052;28;20102;-74
2022/09/26 00:54:45;;;;;;;7.10;3.53;;;;;;;10.38;87.20;100858.81;5031180;28;20030;-74
2022/09/26 00:57:30;;;;;;;7.43;3.72;;;;;;;10.36;87.30;100847.38;5029645;28;20096;-74
2022/09/26 01:00:00;;;;;;;7.68;3.47;;;;;;;10.33;87.38;100845.66;5031238;28;20033;-74
2022/09/26 01:02:27;;;;;;;9.52;4.00;;;;;;;10.32;87.44;100836.84;5029734;28;20041;-74
2022/09/26 01:04:55;;;;;;;8.40;3.60;;;;;;;10.32;87.36;100831.56;5030991;28;20045;-73
2022/09/26 01:07:24;;;;;;;6.97;3.72;;;;;;;10.37;87.25;100826.16;5031088;28;20101;-73
2022/09/26 01:09:51;;;;;;;5.13;3.60;;;;;;;10.33;87.39;100817.41;5026938;28;20473;-74
2022/09/26 01:12:19;;;;;;;7.75;3.72;;;;;;;10.35;87.35;100817.38;5018747;28;20038;-74
2022/09/26 01:14:47;;;;;;;8.25;3.35;;;;;;;10.32;87.31;100814.81;5030832;28;20057;-73
2022/09/26 01:17:14;;;;;;;7.65;3.95;;;;;;;10.34;87.61;100810.34;5014792;28;20505;-73
2022/09/26 01:20:16;;;;;;;7.47;3.70;;;;;;;10.36;86.95;100802.38;5027306;28;20116;-74
2022/09/26 01:22:59;;;;;;;7.05;3.45;;;;;;;10.35;87.61;100798.00;5025163;28;20050;-74
2022/09/26 01:25:51;;;;;;;7.32;3.65;;;;;;;10.33;87.76;100788.28;5028300;28;20043;-73
2022/09/26 01:28:22;;;;;;;6.45;3.60;;;;;;;10.33;87.68;100777.69;5029104;28;20041;-73
2022/09/26 01:31:22;;;;;;;10.23;4.20;;;;;;;10.33;87.64;100766.25;5016708;28;20112;-74
2022/09/26 01:34:09;;;;;;;7.28;3.95;;;;;;;10.32;87.60;100762.72;5012468;28;20099;-74
2022/09/26 01:36:44;;;;;;;5.65;3.67;;;;;;;10.31;87.67;100754.81;5013043;28;20042;-73
2022/09/26 01:39:23;;;;;;;9.88;3.75;;;;;;;10.30;87.85;100753.09;5020428;28;20116;-74
2022/09/26 01:42:13;;;;;;;7.68;3.50;;;;;;;10.33;87.21;100745.94;5033065;28;20033;-73
2022/09/26 01:44:47;;;;;;;6.90;3.53;;;;;;;10.35;87.24;100745.03;5022191;28;20394;-73
2022/09/26 01:47:17;;;;;;;9.73;3.75;;;;;;;10.32;86.94;100738.91;5034323;28;20042;-73
2022/09/26 01:50:11;;;;;;;9.70;3.40;;;;;;;10.35;86.84;100729.16;5032848;28;20477;-74
2022/09/26 01:52:48;;;;;;;9.02;3.20;;;;;;;10.32;86.46;100719.53;5031993;28;20036;-73
2022/09/26 01:55:24;;;;;;;7.35;3.40;;;;;;;10.33;86.63;100715.97;5032704;28;20033;-73
2022/09/26 01:58:14;;;;;;;5.82;2.95;;;;;;;10.35;86.16;100713.28;5032626;28;20036;-73
2022/09/26 02:00:44;;;;;;;8.50;3.22;;;;;;;10.32;85.91;100707.16;5016260;28;20132;-73
2022/09/26 02:03:14;;;;;;;6.47;2.95;;;;;;;10.33;86.08;100703.59;5034266;28;20104;-73
2022/09/26 02:06:02;;;;;;;9.68;3.50;;;;;;;10.34;85.69;100699.19;5032542;28;20033;-74
2022/09/26 02:08:45;;;;;;;5.80;3.00;;;;;;;10.36;85.62;100697.38;5032769;28;20031;-73
2022/09/26 02:11:16;;;;;;;5.35;2.90;;;;;;;10.35;85.33;100692.09;5016057;28;20029;-74
2022/09/26 02:13:57;;;;;;;5.22;2.60;;;;;;;10.37;85.31;100682.38;5032848;28;20508;-74
2022/09/26 02:16:48;;;;;;;8.05;2.92;;;;;;;10.37;85.09;100685.88;5032094;28;20520;-74
2022/09/26 02:19:36;;;;;;;7.27;2.60;;;;;;;10.36;85.41;100675.31;5026236;28;20482;-74
2022/09/26 02:22:02;;;;;;;8.07;2.50;;;;;;;10.32;84.82;100670.09;5031335;28;20688;-74
2022/09/26 02:24:28;;;;;;;5.55;2.72;;;;;;;10.33;84.93;100663.88;5026929;28;20449;-74
2022/09/26 02:26:55;;;;;;;4.95;2.88;;;;;;;10.30;85.00;100663.97;5030276;28;20099;-73
2022/09/26 02:29:21;;;;;;;4.47;2.58;;;;;;;10.35;84.89;100657.69;5029659;28;20129;-74
2022/09/26 02:31:56;;;;;;;9.55;3.20;;;;;;;10.32;84.77;100654.22;5005081;28;20112;-74
2022/09/26 02:34:24;;;;;;;6.93;2.65;;;;;;;10.31;85.05;100654.25;5013877;28;20457;-73
2022/09/26 02:36:50;;;;;;;5.28;2.70;;;;;;;10.31;84.53;100646.28;5015340;28;20052;-73
2022/09/26 02:39:16;;;;;;;8.13;2.65;;;;;;;10.32;84.65;100640.97;5031886;28;20423;-74
2022/09/26 02:42:20;;;;;;;7.00;2.63;;;;;;;10.32;84.29;100640.97;5031691;28;20045;-73
2022/09/26 02:45:11;;;;;;;8.43;2.60;;;;;;;10.32;84.00;100640.97;5031867;28;20052;-74
2022/09/26 02:47:43;;;;;;;6.35;2.60;;;;;;;10.32;83.45;100630.38;5036189;28;20434;-74
2022/09/26 02:50:30;;;;;;;5.45;2.50;;;;;;;10.40;82.88;100632.84;5031480;28;20061;-74
2022/09/26 02:53:55;;;;;;;3.40;2.30;;;;;;;10.35;83.20;100624.16;5031835;28;20434;-74
2022/09/26 02:56:38;;;;;;;4.30;2.22;;;;;;;10.33;82.28;100616.25;4985605;28;20041;-73
2022/09/26 02:59:27;;;;;;;4.60;2.35;;;;;;;10.33;82.48;100618.03;4994256;28;20036;-74
2022/09/26 03:02:14;;;;;;;6.93;2.40;;;;;;;10.36;82.54;100614.44;5024917;28;20053;-74
2022/09/26 03:05:10;;;;;;;7.55;2.17;;;;;;;10.33;82.94;100612.72;5003584;28;20393;-74
2022/09/26 03:07:41;;;;;;;10.35;2.50;;;;;;;10.34;82.81;100614.50;5031259;28;20029;-73
2022/09/26 03:10:10;;;;;;;9.03;2.30;;;;;;;10.29;83.56;100614.59;5031302;28;20026;-72
2022/09/26 03:12:37;;;;;;;7.45;2.20;;;;;;;10.26;83.59;100613.75;5015011;28;20037;-72
2022/09/26 03:15:05;;;;;;;6.20;2.30;;;;;;;10.27;83.47;100602.28;5031235;28;20044;-72
2022/09/26 03:17:34;;;;;;;5.70;2.35;;;;;;;10.26;83.58;100593.47;5030246;28;20386;-72
2022/09/26 03:20:06;;;;;;;6.78;2.13;;;;;;;10.24;84.48;100589.13;5021836;28;20044;-72
2022/09/26 03:22:37;;;;;;;7.95;2.33;;;;;;;10.23;83.82;100584.72;5030957;28;20041;-72
2022/09/26 03:25:07;;;;;;;7.43;2.20;;;;;;;10.19;84.08;100577.75;5003858;28;20041;-72
2022/09/26 03:27:38;;;;;;;5.78;2.22;;;;;;;10.19;84.07;100568.06;5030828;28;20516;-71
2022/09/26 03:30:04;;;;;;;6.80;2.00;;;;;;;10.20;83.77;100567.13;5014352;28;20103;-71
2022/09/26 03:32:34;;;;;;;9.52;2.30;;;;;;;10.18;84.68;100570.72;5031216;28;20365;-71
2022/09/26 03:34:59;;;;;;;10.50;2.72;;;;;;;10.15;84.08;100561.09;5027345;28;20030;-71
2022/09/26 03:37:25;;;;;;;10.38;2.70;;;;;;;10.13;84.88;100552.31;5014075;28;20561;-71
2022/09/26 03:39:51;;;;;;;4.80;1.95;;;;;;;10.11;85.39;100551.47;5030883;28;20544;-71
2022/09/26 03:42:46;;;;;;;5.28;1.90;;;;;;;10.08;84.41;100549.78;5031771;28;20069;-71
2022/09/26 03:45:12;;;;;;;8.60;2.25;;;;;;;10.07;84.69;100549.84;5030067;28;20461;-71
2022/09/26 03:47:56;;;;;;;5.03;2.20;;;;;;;10.04;85.19;100540.19;5030333;28;20068;-71
2022/09/26 03:50:24;;;;;;;7.10;2.38;;;;;;;10.10;83.94;100545.31;5029949;28;20030;-71
2022/09/26 03:52:51;;;;;;;7.65;2.15;;;;;;;10.06;84.32;100537.50;5030435;28;20087;-71
2022/09/26 03:55:16;;;;;;;9.52;2.08;;;;;;;10.07;84.13;100531.31;5030414;28;20077;-72
2022/09/26 03:57:41;;;;;;;7.63;2.10;;;;;;;10.02;84.71;100528.78;5030061;28;20042;-71
2022/09/26 04:00:17;;;;;;;5.35;1.83;;;;;;;10.04;84.51;100520.78;5030301;28;20035;-72
2022/09/26 04:02:44;;;;;;;8.90;2.50;;;;;;;10.00;84.97;100520.00;5030205;28;20037;-72
2022/09/26 04:05:22;;;;;;;7.75;2.30;;;;;;;9.98;84.74;100516.53;5030191;28;20042;-72
2022/09/26 04:07:47;;;;;;;7.57;2.50;;;;;;;9.97;84.74;100511.28;5030331;28;20033;-72
2022/09/26 04:10:13;;;;;;;6.75;2.25;;;;;;;9.93;84.60;100499.03;5030198;28;20113;-72
2022/09/26 04:12:39;;;;;;;6.30;2.03;;;;;;;9.91;84.93;100496.41;5013849;28;20128;-72
2022/09/26 04:15:06;;;;;;;5.18;2.00;;;;;;;9.89;84.71;100490.28;5029945;28;20156;-72
2022/09/26 04:17:33;;;;;;;7.57;2.22;;;;;;;9.90;85.04;100471.75;5028829;28;20084;-72
2022/09/26 04:20:00;;;;;;;6.65;2.15;;;;;;;9.90;84.76;100470.88;5029992;28;20060;-72
2022/09/26 04:22:26;;;;;;;5.30;2.20;;;;;;;9.87;85.37;100470.97;5031238;28;20045;-72
2022/09/26 04:24:52;;;;;;;10.82;3.03;;;;;;;9.86;85.05;100470.09;5021394;28;20044;-72
2022/09/26 04:27:18;;;;;;;6.97;2.20;;;;;;;9.88;85.01;100460.34;5029891;28;20076;-72
2022/09/26 04:29:44;;;;;;;6.90;2.50;;;;;;;9.87;85.22;100461.25;5010210;28;20474;-72
2022/09/26 04:32:30;;;;;;;9.18;2.40;;;;;;;9.85;85.19;100452.50;5023045;28;20477;-72
2022/09/26 04:35:34;;;;;;;9.48;2.50;;;;;;;9.88;85.23;100443.59;5015442;28;20079;-72
2022/09/26 04:37:59;;;;;;;5.28;2.22;;;;;;;9.87;85.46;100448.03;5024903;28;20085;-72
2022/09/26 04:40:25;;;;;;;3.63;2.08;;;;;;;9.85;85.70;100433.13;5029822;28;20127;-72
2022/09/26 04:43:11;;;;;;;7.25;2.53;;;;;;;9.83;86.08;100425.22;5016290;28;20090;-72
2022/09/26 04:45:41;;;;;;;8.45;3.03;;;;;;;9.83;85.73;100411.13;5013195;28;20033;-72
2022/09/26 04:48:09;;;;;;;8.13;2.60;;;;;;;9.83;86.16;100405.84;5030162;28;20482;-72
2022/09/26 04:50:49;;;;;;;8.25;2.83;;;;;;;9.85;86.82;100386.38;5032211;28;20125;-72
2022/09/26 04:53:18;;;;;;;4.25;2.55;;;;;;;9.86;86.11;100400.47;5033781;28;20463;-72
2022/09/26 04:56:11;;;;;;;7.53;2.78;;;;;;;9.84;86.31;100392.59;5032708;28;20136;-72
2022/09/26 04:58:37;;;;;;;8.38;2.70;;;;;;;9.83;86.80;100380.25;5033218;28;20132;-71
2022/09/26 05:01:06;;;;;;;7.75;3.00;;;;;;;9.81;86.64;100375.91;5033342;28;20124;-71
2022/09/26 05:03:49;;;;;;;5.85;2.40;;;;;;;9.81;86.89;100360.03;5033100;28;20120;-71
2022/09/26 05:06:16;;;;;;;11.73;2.85;;;;;;;9.78;87.58;100361.00;5016871;28;20033;-71
2022/09/26 05:08:45;;;;;;;11.35;2.97;;;;;;;9.77;87.59;100361.06;5032945;28;20021;-72
2022/09/26 05:11:14;;;;;;;5.35;2.50;;;;;;;9.77;87.44;100348.69;5033166;28;20044;-71
2022/09/26 05:13:39;;;;;;;6.88;2.67;;;;;;;9.76;87.68;100354.00;5032918;28;20042;-71
2022/09/26 05:16:07;;;;;;;6.03;2.78;;;;;;;9.73;87.92;100352.31;5016589;28;20065;-72
2022/09/26 05:18:35;;;;;;;5.68;2.63;;;;;;;9.73;87.73;100341.75;5031960;28;20148;-71
2022/09/26 05:21:02;;;;;;;4.57;2.28;;;;;;;9.73;87.67;100347.03;5032525;28;20026;-72
2022/09/26 05:26:20;;;;;;;7.03;2.50;;;;;;;9.73;87.86;100338.22;5018861;28;20496;-72
2022/09/26 05:28:49;;;;;;;7.15;2.70;;;;;;;9.72;87.27;100334.72;5032518;28;20124;-72
2022/09/26 05:31:17;;;;;;;6.82;2.70;;;;;;;9.76;87.24;100343.44;5034200;28;20368;-72
2022/09/26 05:33:45;;;;;;;6.20;2.60;;;;;;;9.72;87.35;100334.72;5016513;28;20095;-72
2022/09/26 05:36:11;;;;;;;8.05;2.60;;;;;;;9.73;87.67;100319.72;5013449;28;20026;-72
2022/09/26 05:38:38;;;;;;;6.40;2.50;;;;;;;9.72;87.52;100325.91;5019198;28;20117;-72
2022/09/26 05:41:04;;;;;;;8.48;2.78;;;;;;;9.72;86.95;100326.78;5013249;28;20061;-72
2022/09/26 05:43:34;;;;;;;7.72;2.58;;;;;;;9.75;86.96;100332.00;5031129;28;20124;-72
2022/09/26 05:46:05;;;;;;;10.43;2.83;;;;;;;9.76;87.38;100331.06;5032832;28;20030;-72
2022/09/26 05:48:38;;;;;;;8.35;2.58;;;;;;;9.78;87.43;100325.75;5032588;28;20032;-72
2022/09/26 05:51:12;;;;;;;4.35;2.15;;;;;;;9.78;87.42;100328.41;5016430;28;20045;-72
2022/09/26 05:53:42;;;;;;;9.20;3.00;;;;;;;9.77;87.98;100322.25;5032260;28;20026;-72
2022/09/26 05:56:09;;;;;;;6.78;2.72;;;;;;;9.79;88.01;100316.91;5032358;28;20041;-72
2022/09/26 05:58:54;;;;;;;9.07;3.33;;;;;;;9.78;87.93;100316.03;5029370;28;20037;-72
2022/09/26 06:01:40;;;;;;;6.43;2.80;;;;;;;9.77;88.18;100294.94;5011499;28;20042;-72
2022/09/26 06:04:19;;;;;;;12.60;3.60;;;;;;;9.76;87.97;100294.06;5002043;28;20095;-71
2022/09/26 06:07:05;;;;;;;8.82;3.53;;;;;;;9.76;88.87;100287.91;5028601;28;20142;-72
2022/09/26 06:09:30;;;;;;;7.65;3.38;;;;;;;9.76;88.32;100285.25;5015360;28;20116;-72
2022/09/26 06:11:58;;;;;;;9.93;3.58;;;;;;;9.76;88.75;100272.03;5032053;28;20448;-72
2022/09/26 06:14:25;;;;;;;12.57;3.92;;;;;;;9.76;88.88;100272.91;5031949;28;20120;-72
2022/09/26 06:16:51;;;;;;;9.77;4.03;;;;;;;9.78;88.75;100265.78;5030580;28;20058;-72
2022/09/26 06:19:17;;;;;;;17.10;3.30;;;;;;;9.78;88.83;100249.94;5030435;28;20202;-72
2022/09/26 06:21:43;;;;;;;10.13;3.13;;;;;;;9.78;88.64;100244.63;5032030;28;20517;-72
2022/09/26 06:24:12;;;;;;;7.45;3.65;;;;;;;9.83;88.23;100229.50;5031680;28;20085;-72
2022/09/26 06:26:38;;;;;;;7.55;2.92;;;;;;;9.82;88.93;100222.50;5031762;28;20450;-72
2022/09/26 06:29:05;;;;;;;10.50;3.25;;;;;;;9.83;88.79;100226.88;5031631;28;20033;-72
2022/09/26 06:31:34;;;;;;;5.78;3.25;;;;;;;9.83;88.94;100218.06;5031770;28;20120;-72
2022/09/26 06:34:25;;;;;;;;;;;;;;;9.90;87.83;100214.34;5011645;28;20133;-72
2022/09/26 06:37:05;;;;;;;16.35;3.17;;;;;;;9.86;88.41;100200.31;5015350;28;20004;-70
2022/09/26 06:39:35;;;;;;;11.60;3.47;;;;;;;9.90;87.69;100198.47;5031459;28;20037;-70
2022/09/26 06:42:06;;;;;;;10.13;3.13;;;;;;;9.94;88.54;100196.59;5034395;28;20045;-71
2022/09/26 06:44:47;;;;;;;8.30;2.95;;;;;;;9.95;88.68;100185.97;5031563;28;20060;-71
2022/09/26 06:47:34;;;;;;;11.65;3.00;;;;;;;9.98;88.37;100177.09;5011235;28;20119;-70
2022/09/26 06:50:28;;;;;;;9.07;2.90;;;;;;;9.97;88.43;100173.56;5021620;28;20124;-70
2022/09/26 06:52:56;;;;;;;6.18;2.95;;;;;;;10.01;88.05;100167.25;5031534;28;20041;-71
2022/09/26 06:55:23;;;;;;;8.98;2.75;;;;;;;10.04;88.45;100158.38;5031042;28;20029;-71
2022/09/26 06:57:49;;;;;;;7.43;2.83;;;;;;;10.05;88.69;100154.81;5013766;28;20034;-70
2022/09/26 07:00:16;;;;;;;8.02;2.78;;;;;;;10.08;87.77;100150.28;5031195;28;20048;-71
2022/09/26 07:03:04;;;;;;;6.47;2.70;;;;;;;10.12;87.77;100148.44;5032453;28;20110;-71
2022/09/26 07:05:45;;;;;;;7.35;2.78;;;;;;;10.12;87.54;100144.00;5030324;28;20503;-71
2022/09/26 07:08:12;;;;;;;5.80;2.30;;;;;;;10.16;87.70;100147.41;5029766;28;20029;-71
2022/09/26 07:10:37;;;;;;;8.55;2.40;;;;;;;10.16;87.71;100126.25;5019886;28;20040;-71
2022/09/26 07:13:09;;;;;;;5.85;2.40;;;;;;;10.22;87.02;100134.00;5034529;28;20037;-71
2022/09/26 07:15:36;;;;;;;7.05;2.28;;;;;;;10.20;86.60;100122.59;5034630;28;20029;-71
2022/09/26 07:18:21;;;;;;;6.72;2.28;;;;;;;10.25;86.64;100111.88;5022979;28;20104;-71
2022/09/26 07:21:03;;;;;;;4.25;1.90;;;;;;;10.24;86.34;100110.16;4996007;28;20059;-71
2022/09/26 07:23:47;;;;;;;8.25;2.40;;;;;;;10.28;86.77;100115.28;5015947;28;20464;-71
2022/09/26 07:26:14;;;;;;;6.47;2.10;;;;;;;10.28;86.70;100115.28;5024918;28;20096;-71
2022/09/26 07:28:39;;;;;;;6.68;2.47;;;;;;;10.31;86.56;100107.28;5023221;28;20081;-71
2022/09/26 07:31:06;;;;;;;4.28;2.15;;;;;;;10.32;86.90;100110.78;5018307;28;20080;-71
2022/09/26 07:33:51;;;;;;;8.35;2.40;;;;;;;10.36;86.88;100104.50;5024692;28;20116;-71
2022/09/26 07:36:17;;;;;;;5.25;2.10;;;;;;;10.39;86.93;100100.88;5019687;28;20137;-71
2022/09/26 07:38:47;;;;;;;4.60;2.03;;;;;;;10.42;86.58;100106.06;5029522;28;20029;-71
2022/09/26 07:41:13;;;;;;;6.85;2.20;;;;;;;10.45;86.18;100103.31;5024690;28;20041;-71
2022/09/26 07:43:39;;;;;;;5.38;2.50;;;;;;;10.46;86.03;100103.28;5011968;28;20374;-71
2022/09/26 07:52:07;;;;;;;4.90;1.98;;;;;;;10.62;85.71;100094.81;5028715;28;20049;-71
2022/09/26 07:54:43;;;;;;;8.38;2.85;;;;;;;10.63;85.92;100086.81;5013678;28;20030;-72
2022/09/26 07:57:42;;;;;;;7.43;2.63;;;;;;;10.69;85.26;100093.69;5021222;28;20045;-72
2022/09/26 08:00:20;;;;;;;11.05;2.38;;;;;;;10.70;85.58;100085.66;5013180;28;20030;-72
2022/09/26 08:03:11;;;;;;;6.80;2.15;;;;;;;10.71;85.54;100070.66;5023356;28;20085;-71
2022/09/26 08:05:37;;;;;;;11.20;2.63;;;;;;;10.73;86.07;100067.03;5030644;28;20037;-72
2022/09/26 08:08:03;;;;;;;6.05;2.17;;;;;;;10.76;86.05;100069.56;5033774;28;20037;-72
2022/09/26 08:10:48;;;;;;;8.27;2.67;;;;;;;10.79;85.80;100059.81;5025871;28;20043;-72
2022/09/26 08:13:42;;;;;;;;;;;;;;;10.86;85.37;100061.31;5024432;28;20049;-72
2022/09/26 08:16:33;;;;;;;9.88;2.50;;;;;;;10.86;86.11;100048.06;5031124;28;20292;-72
2022/09/26 08:19:01;;;;;;;7.70;2.30;;;;;;;10.91;85.84;100048.78;5007507;28;20095;-72
2022/09/26 08:21:27;;;;;;;11.98;2.63;;;;;;;10.90;85.53;100049.69;5023660;28;20492;-72
2022/09/26 08:23:55;;;;;;;7.47;2.13;;;;;;;10.90;85.13;100039.06;5016081;28;20061;-72
2022/09/26 08:26:30;;;;;;;7.20;2.70;;;;;;;10.91;85.92;100044.34;5012143;28;20058;-72
2022/09/26 08:29:20;;;;;;;8.68;2.22;;;;;;;10.91;85.60;100041.69;5023782;28;20041;-72
2022/09/26 08:31:49;;;;;;;5.38;2.17;;;;;;;10.92;85.43;100043.41;5027843;28;20044;-72
2022/09/26 08:34:14;;;;;;;9.38;2.33;;;;;;;10.91;85.94;100048.78;5029002;28;20022;-72
2022/09/26 08:36:42;;;;;;;7.90;2.28;;;;;;;10.90;86.08;100039.94;5023100;28;20429;-72
2022/09/26 08:39:24;;;;;;;9.15;2.20;;;;;;;10.97;85.92;100048.53;5011835;28;20401;-71
2022/09/26 08:42:37;;;;;;;8.85;2.28;;;;;;;10.97;86.08;100049.41;5029165;28;20051;-72
2022/09/26 08:48:34;;;;;;;12.27;2.75;;;;;;;11.03;86.10;100039.50;5026380;28;20043;-72
2022/09/26 08:51:34;;;;;;;7.75;2.05;;;;;;;11.08;86.62;100037.56;5026169;28;20437;-72
2022/09/26 08:54:33;;;;;;;7.93;2.33;;;;;;;11.11;85.54;100040.09;5026687;28;20022;-72
2022/09/26 08:57:05;;;;;;;6.70;2.20;;;;;;;11.13;86.05;100031.16;5027942;28;20076;-72
2022/09/26 08:59:41;;;;;;;8.23;2.28;;;;;;;11.21;86.05;100030.03;5026881;28;20033;-73
2022/09/26 09:02:20;;;;;;;6.22;2.63;;;;;;;11.20;87.06;100031.78;5027459;28;20087;-73
2022/09/26 09:05:26;;;;;;;6.20;2.10;;;;;;;11.17;87.32;100027.47;5025489;28;20030;-72
2022/09/26 09:07:56;;;;;;;6.28;2.20;;;;;;;11.15;87.96;100020.50;5011739;28;20037;-71
2022/09/26 09:10:43;;;;;;;7.43;2.40;;;;;;;11.14;89.18;100022.28;5026680;28;20033;-70
2022/09/26 09:13:44;;;;;;;6.07;2.08;;;;;;;11.16;89.43;100014.28;5023474;28;20041;-71
2022/09/26 09:16:43;;;;;;;4.55;2.20;;;;;;;11.11;90.41;100005.66;5039159;28;20241;-71
2022/09/26 09:19:36;;;;;;;8.10;2.60;;;;;;;11.06;91.92;100013.78;5019982;28;20045;-71
2022/09/26 09:23:07;;;;;;;6.85;2.45;;;;;;;11.07;92.46;99996.94;5019636;28;20440;-71
2022/09/26 09:25:51;;;;;;;7.40;2.53;;;;;;;11.08;91.95;99989.88;5025440;28;20111;-71
2022/09/26 09:28:55;;;;;;;9.10;2.67;;;;;;;11.11;92.38;99981.81;5007257;28;20383;-71
2022/09/26 09:31:25;;;;;;;8.13;2.78;;;;;;;11.10;92.62;99977.41;5018134;28;20040;-71
2022/09/26 09:34:30;;;;;;;13.27;3.22;;;;;;;11.16;95.04;99967.44;5009237;28;20026;-71
2022/09/26 09:37:36;;;;;;;7.65;2.55;;;;;;;11.21;92.98;99975.22;5011759;28;20348;-72
2022/09/26 09:40:37;;;;;;;8.93;2.70;;;;;;;11.21;93.50;99971.72;5013613;28;20045;-71
2022/09/26 09:43:08;;;;;;;8.23;2.53;;;;;;;11.20;93.80;99957.59;5030181;28;20063;-71
2022/09/26 09:45:46;;;;;;;9.43;2.90;;;;;;;11.21;94.79;99951.38;5014319;28;20114;-72
2022/09/26 09:48:12;;;;;;;9.32;2.50;;;;;;;11.23;94.72;99959.28;5019198;28;20068;-73
2022/09/26 09:51:04;;;;;;;7.13;2.45;;;;;;;11.34;94.74;99943.81;5023448;28;20026;-72
2022/09/26 09:53:56;;;;;;;8.23;2.80;;;;;;;11.29;94.69;99948.44;5024993;28;20108;-72
2022/09/26 09:56:35;;;;;;;13.73;3.13;;;;;;;11.34;94.79;99939.34;5026095;28;20048;-71
2022/09/26 09:59:22;;;;;;;12.70;3.22;;;;;;;11.40;94.77;99933.84;5020474;28;20041;-71
2022/09/26 10:02:23;;;;;;;7.28;2.67;;;;;;;11.40;94.60;99938.28;5026924;28;20485;-72
2022/09/26 10:05:17;;;;;;;7.68;2.40;;;;;;;11.38;95.32;99930.38;5043019;28;20073;-72
2022/09/26 10:07:47;;;;;;;13.88;2.90;;;;;;;11.40;95.48;99914.41;5010709;28;20543;-72
2022/09/26 10:10:47;;;;;;;5.15;2.63;;;;;;;11.43;94.85;99919.59;5027602;28;20046;-71
2022/09/26 10:13:31;;;;;;;5.70;2.60;;;;;;;11.44;95.03;99907.19;5026014;28;20091;-72
2022/09/26 10:16:23;;;;;;;6.85;2.85;;;;;;;11.51;95.20;99898.06;5011525;28;20038;-72
2022/09/26 10:19:07;;;;;;;6.10;2.70;;;;;;;11.51;94.89;99898.94;5041318;28;20053;-71
2022/09/26 10:21:38;;;;;;;10.43;2.85;;;;;;;11.43;95.06;99893.09;5025680;28;20033;-72
2022/09/26 10:24:04;;;;;;;8.38;2.75;;;;;;;11.43;95.51;99881.63;5042268;28;20040;-71
2022/09/26 10:26:44;;;;;;;8.63;2.40;;;;;;;11.41;95.67;99884.31;5026155;28;20075;-72
2022/09/26 10:29:34;;;;;;;10.02;3.30;;;;;;;11.41;95.45;99885.19;5007762;28;20034;-71
2022/09/26 10:32:01;;;;;;;11.27;2.75;;;;;;;11.39;94.53;99878.22;5023559;28;20037;-72
2022/09/26 10:34:30;;;;;;;7.25;2.53;;;;;;;11.34;95.57;99886.34;5007762;28;20516;-72
2022/09/26 10:36:56;;;;;;;8.45;2.42;;;;;;;11.34;95.64;99874.88;5027828;28;20544;-72
2022/09/26 10:42:18;;;;;;;10.18;2.50;;;;;;;11.29;95.87;99871.56;5026555;28;20111;-72
2022/09/26 10:44:49;;;;;;;9.27;2.97;;;;;;;11.26;96.54;99872.56;5039493;28;20064;-71
2022/09/26 10:47:36;;;;;;;5.70;2.55;;;;;;;11.23;97.49;99874.47;5026709;28;20041;-71
2022/09/26 10:50:28;;;;;;;8.93;2.65;;;;;;;11.21;98.32;99866.56;5026646;28;20048;-72
2022/09/26 10:53:37;;;;;;;16.00;3.22;;;;;;;11.27;98.12;99853.06;5031389;28;20061;-72
2022/09/26 10:56:14;;;;;;;14.40;3.28;;;;;;;11.26;98.32;99867.25;5010515;28;20066;-71
2022/09/26 10:58:44;;;;;;;6.45;2.65;;;;;;;11.38;97.22;99860.59;5026643;28;20068;-72
2022/09/26 11:01:25;;;;;;;9.18;2.95;;;;;;;11.27;98.55;99853.06;5025446;28;20079;-73
2022/09/26 11:03:54;;;;;;;12.10;2.70;;;;;;;11.25;99.52;99852.28;5042749;28;20033;-72
2022/09/26 11:06:44;;;;;;;9.30;2.70;;;;;;;11.26;98.36;99851.34;5022564;28;20040;-71
2022/09/26 11:09:19;;;;;;;9.15;3.13;;;;;;;11.20;98.75;99856.88;5007844;28;20350;-73
2022/09/26 11:12:24;;;;;;;15.55;3.47;;;;;;;11.18;100.00;99842.84;5024464;28;20130;-71
2022/09/26 11:14:59;;;;;;;6.90;2.80;;;;;;;11.19;99.88;99853.38;5023884;28;20115;-71
2022/09/26 11:17:48;;;;;;;7.43;2.78;;;;;;;11.22;99.74;99848.88;5034010;28;20057;-72
2022/09/26 11:20:28;;;;;;;43.15;4.10;;;;;;;11.16;99.77;99842.91;5028217;28;20042;-72
2022/09/26 11:23:29;;;;;;;8.07;2.88;;;;;;;11.12;100.00;99843.94;5014791;28;20041;-71
2022/09/26 11:26:17;;;;;;;9.48;3.17;;;;;;;11.14;100.00;99834.16;5014053;28;20080;-72
2022/09/26 11:28:49;;;;;;;13.75;3.10;;;;;;;11.14;100.00;99841.25;5021069;28;20039;-72
2022/09/26 11:31:27;;;;;;;7.60;2.90;;;;;;;11.10;100.00;99835.22;5024351;28;20021;-72
2022/09/26 11:34:27;;;;;;;10.40;2.75;;;;;;;11.17;100.00;99830.50;5030885;28;20412;-72
2022/09/26 11:37:09;;;;;;;10.90;2.40;;;;;;;11.17;100.00;99841.97;5024141;28;20026;-72
2022/09/26 11:40:10;;;;;;;8.80;2.80;;;;;;;11.19;100.00;99840.13;5018829;28;20044;-71
2022/09/26 11:43:16;;;;;;;9.20;2.83;;;;;;;11.08;100.00;99837.06;5027102;28;20129;-71
2022/09/26 11:46:03;;;;;;;6.68;2.72;;;;;;;11.09;100.00;99835.25;5022893;28;20044;-72
2022/09/26 11:49:12;;;;;;;5.80;2.50;;;;;;;11.07;100.00;99826.50;5022398;28;20508;-72
2022/09/26 11:52:17;;;;;;;6.78;3.35;;;;;;;11.06;100.00;99820.34;5022075;28;20398;-72
2022/09/26 11:55:01;;;;;;;6.47;2.40;;;;;;;11.09;100.00;99828.19;5021902;28;20044;-72
2022/09/26 11:57:44;;;;;;;4.03;2.13;;;;;;;11.08;100.00;99823.81;5027811;28;20539;-72
2022/09/26 12:00:23;;;;;;;6.50;2.53;;;;;;;11.09;100.00;99819.38;5018352;28;20034;-72
2022/09/26 12:03:26;;;;;;;8.10;2.60;;;;;;;11.07;100.00;99822.06;5020743;28;20112;-72
2022/09/26 12:06:23;;;;;;;4.85;2.25;;;;;;;11.05;100.00;99818.63;5016121;28;20030;-72
2022/09/26 12:09:12;;;;;;;6.10;2.50;;;;;;;11.06;100.00;99812.41;5027255;28;20432;-72
2022/09/26 12:12:08;;;;;;;5.47;2.22;;;;;;;11.14;100.00;99815.59;5021433;28;20030;-72
2022/09/26 12:14:44;;;;;;;6.40;2.60;;;;;;;11.11;100.00;99810.44;5023014;28;20397;-72
2022/09/26 12:17:34;;;;;;;7.13;2.40;;;;;;;11.08;100.00;99804.41;5013991;28;20042;-72
2022/09/26 12:20:22;;;;;;;4.78;2.60;;;;;;;11.11;100.00;99794.53;5019472;28;20100;-72
2022/09/26 12:22:54;;;;;;;6.25;2.25;;;;;;;11.14;100.00;99809.44;5024900;28;20041;-71
2022/09/26 12:25:28;;;;;;;5.13;2.60;;;;;;;11.08;100.00;99797.31;5023904;28;20134;-72
2022/09/26 12:28:13;;;;;;;5.47;2.53;;;;;;;11.11;100.00;99791.03;5026398;28;20041;-72